createdAt,value
2018-09-24T13:19:32.655Z,47.37
2018-09-24T13:20:32.530Z,47.77
2018-09-24T13:24:22.309Z,46.05
2018-09-24T13:25:22.500Z,47.25
2018-09-24T13:26:22.482Z,47.05
2018-09-24T13:27:22.255Z,47.15
2018-09-24T13:28:22.256Z,46.45
2018-09-24T13:29:22.249Z,46.55
2018-09-24T13:30:22.222Z,45.65
2018-09-24T13:31:22.242Z,45.95
2018-09-24T13:32:22.251Z,46.67
2018-09-24T13:33:22.373Z,46.77
2018-09-24T13:34:22.358Z,46.97
2018-09-24T13:35:22.351Z,46.67
2018-09-24T13:36:22.293Z,46.27
2018-09-24T13:37:22.344Z,46.65
2018-09-24T13:38:22.169Z,47.25
2018-09-24T13:39:22.295Z,46.95
2018-09-24T13:40:22.271Z,46.07
2018-09-24T13:41:22.281Z,46.05
2018-09-24T13:42:22.117Z,45.65
2018-09-24T13:43:22.316Z,46.15
2018-09-24T13:44:22.246Z,46.75
2018-09-24T13:45:22.293Z,46.25
2018-09-24T13:46:22.237Z,45.75
2018-09-24T13:47:22.214Z,44.65
2018-09-24T13:48:22.199Z,45.35
2018-09-24T13:49:22.130Z,44.95
2018-09-24T13:50:22.178Z,44.75
2018-09-24T13:51:22.165Z,44.45
2018-09-24T13:52:21.978Z,44.85
2018-09-24T13:53:22.147Z,44.75
2018-09-24T13:54:22.125Z,44.45
2018-09-24T13:55:22.164Z,44.35
2018-09-24T13:56:22.123Z,44.85
2018-09-24T13:57:22.086Z,44.95
2018-09-24T13:58:22.118Z,44.55
2018-09-24T13:59:22.801Z,44.23
2018-09-24T14:00:21.903Z,44.63
2018-09-24T14:01:22.078Z,45.25
2018-09-24T14:02:22.038Z,44.83
2018-09-24T14:03:22.018Z,44.75
2018-09-24T14:04:22.036Z,44.45
2018-09-24T14:05:21.861Z,44.33
2018-09-24T14:06:21.992Z,44.55
2018-09-24T14:07:22.031Z,43.85
2018-09-24T14:08:22.152Z,43.65
2018-09-24T14:09:21.964Z,43.05
2018-09-24T14:10:21.804Z,44.15
2018-09-24T14:11:21.944Z,43.95
2018-09-24T14:12:21.771Z,44.25
2018-09-24T14:13:22.020Z,44.43
2018-09-24T14:14:21.911Z,45.13
2018-09-24T14:15:21.903Z,44.43
2018-09-24T14:16:21.746Z,44.31
2018-09-24T14:17:21.892Z,44.59
2018-09-24T14:18:21.862Z,45.68
2018-09-24T14:19:21.899Z,44.96
2018-09-24T14:20:21.855Z,45.34
2018-09-24T14:21:21.843Z,45.94
2018-09-24T14:22:21.852Z,46.14
2018-09-24T14:23:21.819Z,46.91
2018-09-24T14:24:21.826Z,46.12
2018-09-24T14:25:21.839Z,46.01
2018-09-24T14:26:21.807Z,46.49
2018-09-24T14:27:21.770Z,46.30
2018-09-24T14:28:21.599Z,46.59
2018-09-24T14:29:21.750Z,46.69
2018-09-24T14:30:21.746Z,47.71
2018-09-24T14:31:21.602Z,47.39
2018-09-24T14:32:21.742Z,45.60
2018-09-24T14:33:21.570Z,47.39
2018-09-24T14:34:21.721Z,47.11
2018-09-24T14:35:21.679Z,47.09
2018-09-24T14:36:21.684Z,48.50
2018-09-24T14:37:21.769Z,48.11
2018-09-24T14:38:21.655Z,49.01
2018-09-24T14:39:21.637Z,48.71
2018-09-24T14:40:21.642Z,48.41
2018-09-24T14:41:21.484Z,48.11
2018-09-24T14:42:21.628Z,48.41
2018-09-24T14:43:21.649Z,47.05
2018-09-24T14:44:21.587Z,43.18
2018-09-24T14:45:21.587Z,44.40
2018-09-24T14:46:21.589Z,44.54
2018-09-24T14:47:21.558Z,45.14
2018-09-24T14:48:21.542Z,46.25
2018-09-24T14:49:21.552Z,46.35
2018-09-24T14:50:21.498Z,47.27
2018-09-24T14:51:21.471Z,44.76
2018-09-24T14:52:21.512Z,44.36
2018-09-24T14:53:21.483Z,46.08
2018-09-24T14:54:21.462Z,45.78
2018-09-24T14:55:21.536Z,46.17
2018-09-24T14:56:21.454Z,45.57
2018-09-24T14:57:21.425Z,44.68
2018-09-24T14:58:21.440Z,43.90
2018-09-24T14:59:21.436Z,44.78
2018-09-24T15:00:21.429Z,44.20
2018-09-24T15:01:21.587Z,44.40
2018-09-24T15:02:21.416Z,42.71
2018-09-24T15:03:21.452Z,42.73
2018-09-24T15:04:21.372Z,43.82
2018-09-24T15:05:21.343Z,43.93
2018-09-24T15:06:21.346Z,41.44
2018-09-24T15:07:21.351Z,42.43
2018-09-24T15:08:21.320Z,42.93
2018-09-24T15:09:21.295Z,41.63
2018-09-24T15:10:21.276Z,41.44
2018-09-24T15:11:21.281Z,41.03
2018-09-24T15:12:21.292Z,40.14
2018-09-24T15:13:21.280Z,41.93
2018-09-24T15:14:21.245Z,42.85
2018-09-24T15:15:21.240Z,41.66
2018-09-24T15:16:21.209Z,43.82
2018-09-24T15:17:21.046Z,41.46
2018-09-24T15:18:21.118Z,39.26
2018-09-24T15:19:21.049Z,41.85
2018-09-24T15:20:21.186Z,41.14
2018-09-24T15:21:21.050Z,40.44
2018-09-24T15:22:21.020Z,40.86
2018-09-24T15:23:21.014Z,41.63
2018-09-24T15:24:21.171Z,40.66
2018-09-24T15:25:21.151Z,40.06
2018-09-24T15:26:20.991Z,41.46
2018-09-24T15:27:21.127Z,39.96
2018-09-24T15:28:20.956Z,38.67
2018-09-24T15:29:21.090Z,39.96
2018-09-24T15:30:21.079Z,38.86
2018-09-24T15:31:21.060Z,38.86
2018-09-24T15:32:20.910Z,38.46
2018-09-24T15:33:21.066Z,38.76
2018-09-24T15:34:21.050Z,38.56
2018-09-24T15:35:20.907Z,38.76
2018-09-24T15:36:21.000Z,38.56
2018-09-24T15:37:21.022Z,39.96
2018-09-24T15:38:21.013Z,40.34
2018-09-24T15:39:20.987Z,39.96
2018-09-24T15:40:20.967Z,38.37
2018-09-24T15:41:21.022Z,39.76
2018-09-24T15:42:20.934Z,38.76
2018-09-24T15:43:20.919Z,38.67
2018-09-24T15:44:20.943Z,39.76
